createdAt,value
2018-03-12T00:01:25.580Z,6.70
2018-03-12T00:03:54.208Z,6.80
2018-03-12T00:06:22.837Z,6.70
2018-03-12T00:08:51.512Z,6.70
2018-03-12T00:11:20.137Z,6.60
2018-03-12T00:13:48.837Z,6.70
2018-03-12T00:16:17.485Z,6.60
2018-03-12T00:18:46.120Z,6.70
2018-03-12T00:21:14.784Z,6.70
2018-03-12T00:23:43.453Z,6.60
2018-03-12T00:26:12.094Z,6.80
2018-03-12T00:28:40.747Z,7.00
2018-03-12T00:31:09.440Z,7.00
2018-03-12T00:33:38.073Z,6.80
2018-03-12T00:36:07.469Z,6.70
2018-03-12T00:38:36.926Z,6.70
2018-03-12T00:41:05.774Z,6.70
2018-03-12T00:43:34.441Z,6.80
2018-03-12T00:46:03.868Z,7.10
2018-03-12T00:48:32.505Z,7.00
2018-03-12T00:51:01.164Z,7.00
2018-03-12T00:53:29.814Z,7.10
2018-03-12T00:55:59.248Z,7.60
2018-03-12T00:58:27.884Z,7.50
2018-03-12T01:00:56.749Z,7.50
2018-03-12T01:03:25.417Z,7.50
2018-03-12T01:05:53.725Z,7.50
2018-03-12T01:08:22.378Z,7.60
2018-03-12T01:10:51.025Z,7.60
2018-03-12T01:13:20.445Z,7.50
2018-03-12T01:15:49.112Z,7.50
2018-03-12T01:18:17.766Z,7.50
2018-03-12T01:20:46.429Z,7.50
2018-03-12T01:23:15.117Z,7.50
2018-03-12T01:25:43.756Z,7.50
2018-03-12T01:28:13.165Z,7.40
2018-03-12T01:30:41.830Z,7.30
2018-03-12T01:33:10.473Z,7.30
2018-03-12T01:35:39.120Z,7.20
2018-03-12T01:38:08.551Z,7.20
2018-03-12T01:40:37.227Z,7.10
2018-03-12T01:43:05.873Z,7.20
2018-03-12T01:45:34.528Z,7.10
2018-03-12T01:48:03.317Z,7.20
2018-03-12T01:50:31.962Z,7.20
2018-03-12T01:53:05.868Z,7.30
2018-03-12T01:55:35.277Z,7.10
2018-03-12T01:58:04.387Z,6.90
2018-03-12T02:00:33.044Z,6.90
2018-03-12T02:03:01.693Z,6.80
2018-03-12T02:05:30.596Z,6.50
2018-03-12T02:07:59.236Z,6.40
2018-03-12T02:10:28.641Z,6.00
2018-03-12T02:12:58.074Z,5.90
2018-03-12T02:15:26.776Z,5.80
2018-03-12T02:17:55.414Z,5.80
2018-03-12T02:20:24.066Z,5.70
2018-03-12T02:22:52.945Z,5.60
2018-03-12T02:25:21.612Z,5.50
2018-03-12T02:27:50.245Z,5.60
2018-03-12T02:30:18.920Z,5.40
2018-03-12T02:32:49.067Z,5.20
2018-03-12T02:35:18.469Z,5.10
2018-03-12T02:37:47.127Z,5.10
2018-03-12T02:40:15.787Z,5.00
2018-03-12T02:42:44.448Z,4.90
2018-03-12T02:45:13.097Z,4.80
2018-03-12T02:47:41.737Z,4.60
2018-03-12T02:50:10.394Z,4.60
2018-03-12T02:52:39.801Z,4.50
2018-03-12T02:55:09.258Z,4.40
2018-03-12T02:57:37.920Z,4.40
2018-03-12T03:00:05.733Z,4.50
2018-03-12T03:02:34.373Z,4.50
2018-03-12T03:05:03.015Z,4.40
2018-03-12T03:07:31.673Z,4.30
2018-03-12T03:10:00.373Z,4.40
2018-03-12T03:12:30.512Z,4.40
2018-03-12T03:14:59.137Z,4.40
2018-03-12T03:17:27.797Z,4.20
2018-03-12T03:19:57.204Z,4.30
2018-03-12T03:22:26.634Z,4.30
2018-03-12T03:24:55.140Z,4.30
2018-03-12T03:27:23.825Z,4.30
2018-03-12T03:29:52.468Z,4.20
2018-03-12T03:32:21.137Z,4.20
2018-03-12T03:34:49.764Z,4.20
2018-03-12T03:37:18.430Z,4.20
2018-03-12T03:39:47.096Z,4.20
2018-03-12T03:42:16.517Z,4.30
2018-03-12T03:44:45.185Z,4.30
2018-03-12T03:47:14.593Z,4.80
2018-03-12T03:49:44.008Z,4.70
2018-03-12T03:52:12.677Z,4.70
2018-03-12T03:54:41.317Z,4.50
2018-03-12T03:57:09.973Z,4.60
2018-03-12T03:59:38.636Z,4.60
2018-03-12T04:02:07.339Z,4.60
2018-03-12T04:04:36.006Z,4.50
2018-03-12T04:07:04.698Z,4.40
2018-03-12T04:09:34.122Z,4.40
2018-03-12T04:12:02.788Z,4.40
2018-03-12T04:14:32.197Z,4.40
2018-03-12T04:17:01.602Z,4.40
2018-03-12T04:19:32.194Z,4.40
2018-03-12T04:22:00.899Z,4.30
2018-03-12T04:24:29.537Z,4.30
2018-03-12T04:26:58.180Z,4.30
2018-03-12T04:29:26.854Z,4.20
2018-03-12T04:31:55.531Z,4.10
2018-03-12T04:34:24.187Z,4.10
2018-03-12T04:36:52.838Z,4.00
2018-03-12T04:39:22.273Z,3.80
2018-03-12T04:41:50.923Z,3.80
2018-03-12T04:44:19.272Z,3.70
2018-03-12T04:46:47.940Z,3.80
2018-03-12T04:49:16.587Z,3.90
2018-03-12T04:51:45.993Z,3.80
2018-03-12T04:54:15.433Z,3.90
2018-03-12T04:56:44.116Z,3.90
2018-03-12T04:59:12.766Z,4.10
2018-03-12T05:01:42.178Z,4.00
2018-03-12T05:04:11.633Z,3.80
2018-03-12T05:06:40.288Z,3.80
2018-03-12T05:09:08.932Z,3.70
2018-03-12T05:11:37.601Z,3.50
2018-03-12T05:14:06.265Z,3.40
2018-03-12T05:16:34.925Z,3.30
2018-03-12T05:19:03.569Z,3.40
2018-03-12T05:21:32.218Z,3.30
2018-03-12T05:24:00.903Z,3.20
2018-03-12T05:26:29.544Z,3.10
2018-03-12T05:28:58.953Z,3.10
2018-03-12T05:31:28.396Z,3.10
2018-03-12T05:33:57.045Z,3.10
2018-03-12T05:36:26.466Z,3.20
2018-03-12T05:38:55.117Z,3.20
2018-03-12T05:41:23.826Z,3.20
2018-03-12T05:43:53.274Z,3.20
2018-03-12T05:46:21.920Z,3.10
2018-03-12T05:48:51.325Z,3.10
2018-03-12T05:51:20.763Z,3.20
2018-03-12T05:53:49.409Z,3.10
2018-03-12T05:56:18.090Z,3.20
2018-03-12T05:58:46.926Z,3.20
2018-03-12T06:01:15.578Z,3.30
2018-03-12T06:03:45.021Z,3.30
2018-03-12T06:06:13.751Z,3.30
2018-03-12T06:08:43.217Z,3.30
2018-03-12T06:11:11.936Z,3.30
2018-03-12T06:13:40.580Z,3.60
2018-03-12T06:16:09.291Z,3.60
2018-03-12T06:18:38.143Z,3.70
2018-03-12T06:21:06.879Z,4.10
2018-03-12T06:23:36.501Z,4.30
2018-03-12T06:26:05.328Z,4.30
2018-03-12T06:28:34.011Z,4.30
2018-03-12T06:31:02.664Z,4.50
2018-03-12T06:33:31.318Z,4.60
2018-03-12T06:36:00.000Z,4.50
2018-03-12T06:38:28.717Z,4.70
2018-03-12T06:40:57.397Z,4.70
2018-03-12T06:43:26.084Z,4.60
2018-03-12T06:45:54.733Z,4.60
2018-03-12T06:48:24.142Z,4.70
2018-03-12T06:50:54.145Z,4.70
2018-03-12T06:53:22.920Z,4.90
2018-03-12T06:55:52.477Z,4.90
2018-03-12T06:58:21.979Z,5.10
2018-03-12T07:00:50.910Z,5.10
2018-03-12T07:03:19.633Z,5.70
2018-03-12T07:05:48.300Z,7.70
2018-03-12T07:08:17.005Z,10.10
2018-03-12T07:10:45.417Z,12.80
2018-03-12T07:13:13.476Z,15.00
2018-03-12T07:15:41.869Z,15.20
2018-03-12T07:18:10.262Z,14.00
2018-03-12T07:20:39.409Z,11.00
2018-03-12T07:23:07.821Z,11.00
2018-03-12T07:25:36.202Z,10.10
2018-03-12T07:28:04.576Z,9.40
2018-03-12T07:30:32.976Z,9.40
2018-03-12T07:33:02.129Z,10.00
2018-03-12T07:35:31.281Z,11.10
2018-03-12T07:38:00.433Z,12.50
2018-03-12T07:40:28.848Z,12.50
2018-03-12T07:42:57.223Z,12.80
2018-03-12T07:45:25.606Z,12.70
2018-03-12T07:47:53.992Z,12.20
2018-03-12T07:50:23.163Z,12.10
2018-03-12T07:52:51.531Z,12.10
2018-03-12T07:55:19.906Z,12.30
2018-03-12T07:57:48.321Z,12.60
2018-03-12T08:00:17.468Z,13.10
2018-03-12T08:02:45.846Z,13.00
2018-03-12T08:05:14.232Z,13.30
2018-03-12T08:07:42.614Z,13.40
2018-03-12T08:10:10.988Z,13.80
2018-03-12T08:12:39.385Z,13.50
2018-03-12T08:15:07.752Z,13.20
2018-03-12T08:17:36.131Z,13.20
2018-03-12T08:20:04.547Z,13.00
2018-03-12T08:22:32.926Z,12.90
2018-03-12T08:25:01.317Z,12.90
2018-03-12T08:27:29.716Z,13.00
2018-03-12T08:29:58.853Z,13.10
2018-03-12T08:32:27.230Z,13.00
2018-03-12T08:34:55.626Z,13.00
2018-03-12T08:37:24.002Z,12.80
2018-03-12T08:39:52.381Z,12.90
2018-03-12T08:42:20.771Z,12.90
2018-03-12T08:44:49.230Z,12.80
2018-03-12T08:47:17.289Z,12.50
2018-03-12T08:49:45.666Z,12.60
2018-03-12T08:52:14.034Z,12.60
2018-03-12T08:54:43.207Z,12.50
2018-03-12T08:57:11.583Z,12.50
2018-03-12T08:59:39.954Z,12.60
2018-03-12T09:02:08.026Z,12.70
2018-03-12T09:04:36.591Z,13.00
2018-03-12T09:07:04.962Z,13.10
2018-03-12T09:09:33.368Z,13.10
2018-03-12T09:12:01.738Z,13.30
2018-03-12T09:14:30.109Z,13.80
2018-03-12T09:16:58.518Z,14.10
2018-03-12T09:19:26.897Z,14.40
2018-03-12T09:21:55.282Z,14.90
2018-03-12T09:24:23.695Z,15.10
2018-03-12T09:26:52.252Z,15.40
2018-03-12T09:29:21.388Z,15.40
2018-03-12T09:31:49.777Z,15.30
2018-03-12T09:34:18.146Z,15.20
2018-03-12T09:36:46.543Z,15.40
2018-03-12T09:39:14.918Z,16.00
2018-03-12T09:41:43.303Z,16.80
2018-03-12T09:44:11.686Z,18.70
2018-03-12T09:46:40.085Z,21.60
2018-03-12T09:49:08.457Z,23.50
2018-03-12T09:51:36.821Z,25.20
2018-03-12T09:54:05.240Z,26.50
2018-03-12T09:56:33.613Z,27.20
2018-03-12T09:59:02.018Z,28.20
2018-03-12T10:01:30.572Z,29.00
2018-03-12T10:03:58.947Z,29.20
2018-03-12T10:06:27.344Z,28.50
2018-03-12T10:08:55.718Z,28.80
2018-03-12T10:11:24.096Z,28.60
2018-03-12T10:13:52.529Z,28.00
2018-03-12T10:16:20.908Z,26.60
2018-03-12T10:18:49.276Z,26.90
2018-03-12T10:21:18.444Z,26.00
2018-03-12T10:23:46.817Z,25.90
2018-03-12T10:26:15.184Z,25.20
2018-03-12T10:28:43.578Z,24.90
2018-03-12T10:31:11.973Z,23.90
2018-03-12T10:33:40.364Z,22.30
2018-03-12T10:36:09.504Z,24.80
2018-03-12T10:38:37.868Z,24.80
2018-03-12T10:41:06.384Z,23.60
2018-03-12T10:43:34.757Z,22.60
2018-03-12T10:46:03.141Z,23.50
2018-03-12T10:48:31.552Z,23.00
2018-03-12T10:50:59.933Z,24.50
2018-03-12T10:53:28.309Z,24.40
2018-03-12T10:55:56.712Z,23.20
2018-03-12T10:58:25.853Z,21.40
2018-03-12T11:00:55.009Z,21.30
2018-03-12T11:03:38.853Z,19.70
2018-03-12T11:06:13.359Z,18.70
2018-03-12T11:08:41.753Z,18.60
2018-03-12T11:11:10.930Z,17.90
2018-03-12T11:13:39.452Z,17.80
2018-03-12T11:16:07.528Z,18.30
2018-03-12T11:18:35.895Z,19.80
2018-03-12T11:21:05.040Z,20.50
2018-03-12T11:23:33.444Z,20.50
2018-03-12T11:26:01.844Z,20.20
2018-03-12T11:28:30.989Z,18.40
2018-03-12T11:30:59.362Z,18.30
2018-03-12T11:33:27.739Z,17.70
2018-03-12T11:35:56.161Z,17.20
2018-03-12T11:38:24.545Z,16.80
2018-03-12T11:40:52.947Z,16.50
2018-03-12T11:43:21.497Z,16.20
2018-03-12T11:45:49.885Z,16.10
2018-03-12T11:48:18.274Z,16.10
2018-03-12T11:50:46.649Z,16.20
2018-03-12T11:53:15.036Z,16.10
2018-03-12T11:55:43.424Z,16.00
2018-03-12T11:58:12.574Z,17.40
2018-03-12T12:00:40.959Z,17.40
2018-03-12T12:03:09.057Z,19.30
2018-03-12T12:05:37.430Z,20.20
2018-03-12T12:08:05.815Z,19.90
2018-03-12T12:10:34.217Z,19.00
2018-03-12T12:13:03.366Z,17.80
2018-03-12T12:15:31.734Z,17.80
2018-03-12T12:18:00.126Z,16.70
2018-03-12T12:20:28.505Z,16.20
2018-03-12T12:22:56.885Z,16.10
2018-03-12T12:25:25.297Z,15.70
2018-03-12T12:27:53.677Z,15.60
2018-03-12T12:30:22.052Z,15.70
2018-03-12T12:32:50.462Z,16.00
2018-03-12T12:35:19.603Z,16.00
2018-03-12T12:37:47.977Z,16.00
2018-03-12T12:40:16.030Z,16.20
2018-03-12T12:42:44.409Z,16.40
2018-03-12T12:45:12.837Z,16.60
2018-03-12T12:47:41.234Z,16.90
2018-03-12T12:50:09.613Z,16.60
2018-03-12T12:52:38.017Z,16.40
2018-03-12T12:55:07.181Z,16.50
2018-03-12T12:57:35.565Z,16.50
2018-03-12T13:00:04.386Z,16.10
2018-03-12T13:02:33.563Z,15.80
2018-03-12T13:05:02.000Z,15.80
2018-03-12T13:07:30.522Z,15.40
2018-03-12T13:09:58.732Z,15.40
2018-03-12T13:12:27.101Z,15.20
2018-03-12T13:14:56.253Z,14.90
2018-03-12T13:17:24.625Z,14.90
2018-03-12T13:19:53.053Z,14.80
2018-03-12T13:22:22.208Z,14.60
2018-03-12T13:24:50.589Z,14.60
2018-03-12T13:27:18.989Z,14.60
2018-03-12T13:29:47.369Z,14.70
2018-03-12T13:32:15.754Z,14.60
2018-03-12T13:34:44.208Z,14.70
2018-03-12T13:37:13.506Z,14.60
2018-03-12T13:39:41.887Z,14.50
2018-03-12T13:42:10.277Z,14.60
2018-03-12T13:44:38.652Z,14.60
2018-03-12T13:47:07.050Z,14.70
2018-03-12T13:49:35.429Z,14.80
2018-03-12T13:52:03.947Z,14.80
2018-03-12T13:54:33.087Z,14.50
2018-03-12T13:57:01.466Z,14.50
2018-03-12T13:59:29.879Z,14.50
2018-03-12T14:01:58.253Z,14.60
2018-03-12T14:04:26.633Z,14.70
2018-03-12T14:06:54.711Z,14.50
2018-03-12T14:09:23.093Z,14.50
2018-03-12T14:11:51.465Z,14.50
2018-03-12T14:14:19.902Z,14.50
2018-03-12T14:16:48.435Z,14.50
2018-03-12T14:19:16.818Z,14.20
2018-03-12T14:21:45.236Z,14.10
2018-03-12T14:24:13.611Z,14.00
2018-03-12T14:26:42.753Z,14.00
2018-03-12T14:29:11.269Z,14.00
2018-03-12T14:31:39.640Z,13.90
2018-03-12T14:34:08.018Z,13.90
2018-03-12T14:36:36.441Z,14.20
2018-03-12T14:39:03.982Z,14.50
2018-03-12T14:41:33.122Z,14.60
2018-03-12T14:44:01.539Z,14.60
2018-03-12T14:46:29.913Z,14.40
2018-03-12T14:48:58.297Z,14.40
2018-03-12T14:51:26.693Z,14.40
2018-03-12T14:53:55.841Z,14.20
2018-03-12T14:56:24.233Z,14.20
2018-03-12T14:58:52.646Z,14.10
2018-03-12T15:01:21.023Z,14.10
2018-03-12T15:03:49.402Z,14.10
2018-03-12T15:06:17.797Z,13.90
2018-03-12T15:08:46.972Z,13.70
2018-03-12T15:11:15.379Z,13.70
2018-03-12T15:13:44.521Z,13.50
2018-03-12T15:16:12.918Z,13.50
2018-03-12T15:18:40.968Z,13.40
2018-03-12T15:21:09.381Z,13.30
2018-03-12T15:23:37.752Z,13.20
2018-03-12T15:26:06.161Z,13.10
2018-03-12T15:28:35.326Z,13.00
2018-03-12T15:31:03.857Z,13.00
2018-03-12T15:33:32.293Z,13.00
2018-03-12T15:36:00.702Z,13.00
2018-03-12T15:38:29.853Z,13.00
2018-03-12T15:40:58.243Z,13.00
2018-03-12T15:43:26.617Z,13.00
2018-03-12T15:45:55.034Z,13.00
2018-03-12T15:48:23.414Z,13.00
2018-03-12T15:50:51.785Z,13.00
2018-03-12T15:53:20.201Z,13.00
2018-03-12T15:55:49.345Z,12.90
2018-03-12T15:58:17.721Z,12.90
2018-03-12T16:00:46.141Z,12.90
2018-03-12T16:03:15.306Z,12.80
2018-03-12T16:05:43.706Z,12.80
2018-03-12T16:08:12.117Z,12.60
2018-03-12T16:10:40.507Z,12.50
2018-03-12T16:13:09.017Z,12.40
2018-03-12T16:15:37.405Z,12.30
2018-03-12T16:18:05.782Z,12.20
2018-03-12T16:20:34.461Z,12.00
2018-03-12T16:23:02.873Z,11.90
2018-03-12T16:25:31.259Z,11.80
2018-03-12T16:27:59.642Z,11.80
2018-03-12T16:30:28.050Z,11.70
2018-03-12T16:32:58.711Z,11.60
2018-03-12T16:35:27.129Z,11.60
2018-03-12T16:37:55.528Z,11.60
2018-03-12T16:40:23.946Z,11.50
2018-03-12T16:42:52.339Z,11.40
2018-03-12T16:45:20.726Z,11.30
2018-03-12T16:47:49.102Z,11.40
2018-03-12T16:50:17.512Z,11.20
2018-03-12T16:52:45.891Z,11.20
2018-03-12T16:55:14.319Z,11.20
2018-03-12T16:57:42.862Z,11.00
2018-03-12T17:00:11.234Z,10.90
2018-03-12T17:02:39.876Z,10.90
2018-03-12T17:05:08.282Z,11.00
2018-03-12T17:07:37.761Z,10.90
2018-03-12T17:10:06.146Z,10.90
2018-03-12T17:12:34.578Z,10.70
2018-03-12T17:15:02.954Z,10.60
2018-03-12T17:17:31.331Z,10.60
2018-03-12T17:20:00.076Z,10.50
2018-03-12T17:22:28.712Z,10.40
2018-03-12T17:24:57.393Z,10.40
2018-03-12T17:27:26.046Z,10.30
2018-03-12T17:29:55.450Z,10.20
2018-03-12T17:32:24.865Z,10.20
2018-03-12T17:34:53.584Z,10.20
2018-03-12T17:37:22.229Z,10.20
2018-03-12T17:39:51.695Z,10.30
2018-03-12T17:42:21.274Z,10.20
2018-03-12T17:44:49.916Z,10.20
2018-03-12T17:47:18.549Z,10.20
2018-03-12T17:49:47.197Z,10.10
2018-03-12T17:52:16.607Z,10.00
2018-03-12T17:54:46.037Z,9.90
2018-03-12T17:57:14.670Z,9.90
2018-03-12T17:59:43.309Z,9.90
2018-03-12T18:02:11.966Z,10.00
2018-03-12T18:04:41.368Z,10.10
2018-03-12T18:07:10.031Z,10.10
2018-03-12T18:09:38.714Z,10.20
2018-03-12T18:12:08.149Z,10.40
2018-03-12T18:14:37.554Z,10.50
2018-03-12T18:17:06.957Z,10.60
2018-03-12T18:19:36.402Z,10.60
2018-03-12T18:22:05.144Z,10.60
2018-03-12T18:24:34.610Z,10.40
2018-03-12T18:27:03.319Z,10.40
2018-03-12T18:29:33.105Z,10.30
2018-03-12T18:32:01.814Z,10.20
2018-03-12T18:34:30.521Z,10.00
2018-03-12T18:36:58.829Z,10.00
2018-03-12T18:39:27.494Z,9.90
2018-03-12T18:41:56.903Z,9.80
2018-03-12T18:44:26.333Z,9.70
2018-03-12T18:46:54.981Z,9.60
2018-03-12T18:49:24.430Z,9.50
2018-03-12T18:51:53.083Z,9.50
2018-03-12T18:54:22.794Z,9.40
2018-03-12T18:56:52.521Z,9.40
2018-03-12T18:59:21.973Z,9.40
2018-03-12T19:01:50.645Z,9.40
2018-03-12T19:04:19.526Z,9.30
2018-03-12T19:06:48.303Z,9.30
2018-03-12T19:09:17.009Z,9.10
2018-03-12T19:11:45.693Z,8.90
2018-03-12T19:14:14.339Z,8.80
2018-03-12T19:16:43.790Z,8.70
2018-03-12T19:19:12.521Z,8.70
2018-03-12T19:21:42.017Z,8.80
2018-03-12T19:24:10.344Z,8.70
2018-03-12T19:26:39.069Z,8.70
2018-03-12T19:29:07.725Z,8.60
2018-03-12T19:31:36.543Z,8.60
2018-03-12T19:34:05.645Z,8.50
2018-03-12T19:36:34.494Z,8.40
2018-03-12T19:39:03.047Z,8.40
2018-03-12T19:41:32.498Z,8.30
2018-03-12T19:44:01.165Z,8.30
2018-03-12T19:46:29.833Z,8.20
2018-03-12T19:48:59.255Z,7.90
2018-03-12T19:51:27.937Z,7.90
2018-03-12T19:53:56.638Z,7.90
2018-03-12T19:56:25.302Z,7.70
2018-03-12T19:58:55.648Z,7.70
2018-03-12T20:01:24.286Z,7.70
2018-03-12T20:03:52.952Z,7.60
2018-03-12T20:06:20.971Z,7.60
2018-03-12T20:08:49.770Z,7.60
2018-03-12T20:11:20.416Z,7.50
2018-03-12T20:13:49.157Z,7.40
2018-03-12T20:16:17.190Z,7.40
2018-03-12T20:18:45.222Z,7.30
2018-03-12T20:21:14.644Z,7.20
2018-03-12T20:23:43.321Z,7.20
2018-03-12T20:26:11.980Z,7.20
2018-03-12T20:28:40.689Z,7.20
2018-03-12T20:31:10.109Z,7.00
2018-03-12T20:33:38.771Z,7.00
2018-03-12T20:36:07.444Z,6.90
2018-03-12T20:38:36.163Z,6.90
2018-03-12T20:41:05.284Z,6.60
2018-03-12T20:43:34.081Z,6.60
2018-03-12T20:46:02.883Z,6.60
2018-03-12T20:48:31.842Z,6.60
2018-03-12T20:51:01.640Z,6.50
2018-03-12T20:53:31.176Z,6.30
2018-03-12T20:56:00.690Z,6.20
2018-03-12T20:58:31.820Z,6.10
2018-03-12T21:01:00.574Z,6.10
2018-03-12T21:03:31.343Z,6.10
2018-03-12T21:08:35.888Z,6.00
2018-03-12T21:11:04.554Z,6.00
2018-03-12T21:13:33.997Z,6.10
2018-03-12T21:16:02.696Z,6.00
2018-03-12T21:18:31.410Z,6.30
2018-03-12T21:21:00.139Z,6.60
2018-03-12T21:23:28.868Z,6.70
2018-03-12T21:25:57.630Z,6.80
2018-03-12T21:28:26.655Z,6.90
2018-03-12T21:30:55.331Z,6.90
2018-03-12T21:33:24.084Z,7.00
2018-03-12T21:35:52.411Z,7.00
2018-03-12T21:41:08.923Z,7.00
2018-03-12T21:43:37.665Z,7.00
2018-03-12T21:46:07.130Z,7.00
2018-03-12T21:48:35.788Z,7.00
2018-03-12T21:51:04.445Z,7.00
2018-03-12T21:53:33.965Z,6.90
2018-03-12T21:56:02.647Z,6.90
2018-03-12T21:58:31.294Z,6.90
2018-03-12T22:00:59.950Z,6.80
2018-03-12T22:03:28.649Z,6.70
2018-03-12T22:05:57.324Z,6.60
2018-03-12T22:08:25.971Z,6.70
2018-03-12T22:10:54.638Z,6.60
2018-03-12T22:13:23.296Z,6.40
2018-03-12T22:15:51.980Z,6.30
2018-03-12T22:18:20.668Z,6.20
2018-03-12T22:20:49.337Z,6.00
2018-03-12T22:23:18.002Z,6.00
2018-03-12T22:25:46.765Z,6.00
2018-03-12T22:28:16.209Z,6.00
2018-03-12T22:30:45.084Z,6.00
2018-03-12T22:33:13.749Z,6.00
2018-03-12T22:35:43.223Z,6.00
2018-03-12T22:38:11.862Z,6.00
2018-03-12T22:40:40.615Z,5.90
2018-03-12T22:43:09.476Z,5.90
2018-03-12T22:45:38.210Z,6.00
2018-03-12T22:48:07.664Z,6.30
2018-03-12T22:50:36.327Z,6.30
2018-03-12T22:53:05.004Z,6.50
2018-03-12T22:55:33.731Z,6.50
2018-03-12T22:58:02.405Z,6.50
2018-03-12T23:00:30.718Z,6.40
2018-03-12T23:02:59.392Z,6.40
2018-03-12T23:05:28.093Z,6.60
2018-03-12T23:07:56.778Z,6.60
2018-03-12T23:10:25.433Z,6.60
2018-03-12T23:12:54.088Z,6.50
2018-03-12T23:15:23.493Z,6.50
2018-03-12T23:17:52.952Z,6.40
2018-03-12T23:20:21.614Z,6.40
2018-03-12T23:22:50.256Z,6.30
2018-03-12T23:25:18.947Z,6.30
2018-03-12T23:27:48.359Z,6.20
2018-03-12T23:30:17.761Z,6.20
2018-03-12T23:32:47.272Z,6.00
2018-03-12T23:35:16.668Z,5.90
2018-03-12T23:37:46.131Z,6.00
2018-03-12T23:40:14.794Z,5.90
2018-03-12T23:42:43.427Z,6.00
2018-03-12T23:45:12.097Z,5.80
2018-03-12T23:47:40.749Z,5.80
2018-03-12T23:50:09.407Z,5.70
2018-03-12T23:52:38.829Z,5.40
2018-03-12T23:55:07.517Z,5.40
2018-03-12T23:57:36.187Z,5.20
